Time;durP1;ratioP1;P1;durP2;ratioP2;P2;SDS_P1;SDS_P2;PMS_P1;PMS_P2;Temp;Humidity;BMP_temperature;BMP_pressure;BME280_temperature;BME280_humidity;BME280_pressure;Samples;Min_cycle;Max_cycle;Signal;HPM_P1;HPM_P2
2023/08/01 00:00:08;;;;;;;7.88;2.22;;;;;;;;;;5053059;28;20442;-75
2023/08/01 00:02:33;;;;;;;4.07;1.85;;;;;;;;;;5053726;28;20396;-75
2023/08/01 00:04:58;;;;;;;4.07;1.80;;;;;;;;;;5054588;28;20031;-75
2023/08/01 00:07:26;;;;;;;3.37;2.10;;;;;;;;;;5054240;28;20060;-75
2023/08/01 00:09:52;;;;;;;4.70;2.20;;;;;;;;;;5053858;28;20633;-75
2023/08/01 00:12:17;;;;;;;3.90;2.00;;;;;;;;;;5053858;28;20103;-75
2023/08/01 00:14:42;;;;;;;4.10;2.20;;;;;;;;;;5052453;28;20768;-76
2023/08/01 00:17:07;;;;;;;3.33;1.80;;;;;;;;;;5053782;28;20025;-76
2023/08/01 00:19:33;;;;;;;3.05;2.00;;;;;;;;;;5053455;28;20261;-75
2023/08/01 00:21:58;;;;;;;2.72;1.55;;;;;;;;;;5069058;28;20031;-75
2023/08/01 00:24:23;;;;;;;6.30;1.97;;;;;;;;;;5053568;28;20469;-75
2023/08/01 00:26:48;;;;;;;5.33;2.10;;;;;;;;;;5052315;28;20415;-75
2023/08/01 00:29:14;;;;;;;4.90;2.30;;;;;;;;;;5054053;28;20323;-74
2023/08/01 00:31:39;;;;;;;3.75;1.90;;;;;;;;;;5053374;28;20058;-75
2023/08/01 00:34:04;;;;;;;3.78;2.10;;;;;;;;;;5052134;28;20023;-76
2023/08/01 00:36:30;;;;;;;3.53;1.90;;;;;;;;;;5053659;28;20032;-75
2023/08/01 00:38:55;;;;;;;5.22;2.30;;;;;;;;;;5053242;28;20266;-75
2023/08/01 00:41:20;;;;;;;5.60;1.90;;;;;;;;;;5053308;28;20108;-76
2023/08/01 00:43:45;;;;;;;3.08;1.70;;;;;;;;;;5053130;28;20258;-75
2023/08/01 00:46:10;;;;;;;6.00;2.13;;;;;;;;;;5053191;28;20471;-75
2023/08/01 00:48:36;;;;;;;5.45;2.30;;;;;;;;;;5053469;28;20341;-76
2023/08/01 00:51:05;;;;;;;5.70;2.28;;;;;;;;;;5053181;28;20063;-74
2023/08/01 00:53:30;;;;;;;3.03;1.95;;;;;;;;;;5053333;28;20035;-74
2023/08/01 00:55:56;;;;;;;5.45;2.10;;;;;;;;;;5051934;28;20502;-73
2023/08/01 00:58:22;;;;;;;5.75;2.33;;;;;;;;;;5051811;28;20052;-74
2023/08/01 01:00:47;;;;;;;5.75;2.40;;;;;;;;;;5053082;28;20025;-76
2023/08/01 01:03:14;;;;;;;3.63;1.90;;;;;;;;;;5053445;28;20103;-76
2023/08/01 01:05:46;;;;;;;5.15;2.20;;;;;;;;;;5053789;28;20028;-74
2023/08/01 01:08:12;;;;;;;4.60;1.70;;;;;;;;;;5056441;28;20448;-74
2023/08/01 01:10:37;;;;;;;4.57;1.85;;;;;;;;;;5052866;28;20021;-75
2023/08/01 01:13:03;;;;;;;7.30;2.07;;;;;;;;;;5052840;28;20479;-75
2023/08/01 01:15:28;;;;;;;4.55;2.15;;;;;;;;;;5052965;28;20714;-75
2023/08/01 01:17:53;;;;;;;3.92;1.85;;;;;;;;;;5053145;28;20040;-74
2023/08/01 01:20:24;;;;;;;3.75;1.90;;;;;;;;;;5052576;28;20029;-75
2023/08/01 01:22:53;;;;;;;3.45;2.10;;;;;;;;;;5052795;28;20124;-75
2023/08/01 01:25:20;;;;;;;4.15;2.10;;;;;;;;;;5052962;28;20097;-75
2023/08/01 01:27:47;;;;;;;2.97;1.90;;;;;;;;;;5052770;28;20037;-75
2023/08/01 01:30:12;;;;;;;4.25;1.85;;;;;;;;;;5052032;28;20032;-74
2023/08/01 01:32:38;;;;;;;2.95;1.98;;;;;;;;;;5049811;28;20022;-75
2023/08/01 01:35:04;;;;;;;4.93;2.00;;;;;;;;;;5052462;28;20075;-75
2023/08/01 01:37:29;;;;;;;4.22;2.00;;;;;;;;;;5051825;28;20059;-75
2023/08/01 01:39:55;;;;;;;3.80;2.03;;;;;;;;;;5051985;28;20109;-75
2023/08/01 01:42:20;;;;;;;2.75;2.03;;;;;;;;;;5052848;28;20033;-76
2023/08/01 01:44:45;;;;;;;3.80;1.88;;;;;;;;;;5052955;28;20090;-74
2023/08/01 01:47:10;;;;;;;2.40;1.85;;;;;;;;;;5052531;28;20040;-75
2023/08/01 01:49:36;;;;;;;4.27;2.20;;;;;;;;;;5051305;28;20025;-76
2023/08/01 01:52:01;;;;;;;5.50;2.23;;;;;;;;;;5052418;28;20258;-75
2023/08/01 01:54:26;;;;;;;3.08;2.10;;;;;;;;;;5052820;28;20311;-75
2023/08/01 01:56:51;;;;;;;2.90;1.93;;;;;;;;;;5051216;28;20020;-75
2023/08/01 01:59:17;;;;;;;4.33;2.13;;;;;;;;;;5052485;28;20729;-75
2023/08/01 02:01:42;;;;;;;5.00;2.30;;;;;;;;;;5051070;28;20281;-75
2023/08/01 02:04:07;;;;;;;1.97;1.40;;;;;;;;;;5052423;28;20309;-75
2023/08/01 02:06:32;;;;;;;3.63;2.20;;;;;;;;;;5052395;28;20245;-76
2023/08/01 02:08:57;;;;;;;2.70;1.83;;;;;;;;;;5052307;28;20258;-75
2023/08/01 02:11:23;;;;;;;4.03;2.00;;;;;;;;;;5052392;28;20757;-75
2023/08/01 02:13:48;;;;;;;3.38;1.98;;;;;;;;;;5053094;28;20258;-75
2023/08/01 02:16:13;;;;;;;3.28;2.00;;;;;;;;;;5052454;28;20032;-75
2023/08/01 02:18:39;;;;;;;3.13;2.07;;;;;;;;;;5052326;28;20052;-75
2023/08/01 02:21:04;;;;;;;3.78;2.08;;;;;;;;;;5052086;28;20262;-75
2023/08/01 02:23:29;;;;;;;3.83;2.10;;;;;;;;;;5053830;28;20392;-75
2023/08/01 02:25:54;;;;;;;5.20;2.03;;;;;;;;;;5056059;28;20025;-75
2023/08/01 02:28:20;;;;;;;3.17;2.30;;;;;;;;;;5055892;28;20028;-75
2023/08/01 02:30:45;;;;;;;3.65;2.10;;;;;;;;;;5054383;28;20020;-74
2023/08/01 02:33:11;;;;;;;4.10;2.17;;;;;;;;;;5055711;28;20083;-74
2023/08/01 02:35:36;;;;;;;3.25;2.17;;;;;;;;;;5055693;28;20028;-74
2023/08/01 02:38:03;;;;;;;4.15;2.00;;;;;;;;;;5054355;28;20533;-75
2023/08/01 02:40:28;;;;;;;5.55;2.22;;;;;;;;;;5055677;28;20430;-75
2023/08/01 02:42:53;;;;;;;3.25;2.00;;;;;;;;;;5055768;28;20021;-75
2023/08/01 02:45:19;;;;;;;5.63;2.17;;;;;;;;;;5055431;28;20025;-75
2023/08/01 02:47:44;;;;;;;3.20;2.25;;;;;;;;;;5055469;28;20028;-75
2023/08/01 02:50:09;;;;;;;4.68;2.53;;;;;;;;;;5055352;28;20119;-74
2023/08/01 02:52:35;;;;;;;4.85;2.45;;;;;;;;;;5055355;28;20387;-74
2023/08/01 02:55:00;;;;;;;4.47;2.45;;;;;;;;;;5055863;28;20104;-75
2023/08/01 02:57:25;;;;;;;4.25;2.20;;;;;;;;;;5053987;28;20073;-76
2023/08/01 02:59:50;;;;;;;3.65;2.20;;;;;;;;;;5055182;28;20029;-75
2023/08/01 03:02:16;;;;;;;3.47;2.50;;;;;;;;;;5055255;28;20072;-77
2023/08/01 03:04:41;;;;;;;5.20;2.42;;;;;;;;;;5055296;28;20285;-75
2023/08/01 03:07:06;;;;;;;4.37;2.50;;;;;;;;;;5055126;28;20025;-75
2023/08/01 03:09:34;;;;;;;3.97;2.30;;;;;;;;;;5055276;28;20744;-76
2023/08/01 03:11:59;;;;;;;4.55;1.95;;;;;;;;;;5055242;28;20024;-76
2023/08/01 03:14:25;;;;;;;3.17;2.20;;;;;;;;;;5055193;28;20066;-76
2023/08/01 03:16:50;;;;;;;4.77;2.40;;;;;;;;;;5054910;28;20029;-76
2023/08/01 03:19:15;;;;;;;3.10;2.27;;;;;;;;;;5054747;28;20352;-75
2023/08/01 03:21:44;;;;;;;3.07;2.20;;;;;;;;;;5053516;28;20266;-76
2023/08/01 03:24:09;;;;;;;3.30;2.33;;;;;;;;;;5054714;28;20349;-75
2023/08/01 03:26:37;;;;;;;5.45;2.38;;;;;;;;;;5054629;28;20060;-75
2023/08/01 03:29:03;;;;;;;2.83;2.28;;;;;;;;;;5054650;28;20047;-75
2023/08/01 03:31:28;;;;;;;5.10;2.28;;;;;;;;;;5054514;28;20025;-74
2023/08/01 03:33:54;;;;;;;4.07;2.28;;;;;;;;;;5054046;28;20021;-74
2023/08/01 03:36:20;;;;;;;5.07;2.23;;;;;;;;;;5054798;28;20492;-75
2023/08/01 03:38:45;;;;;;;3.95;2.25;;;;;;;;;;5054796;28;20273;-75
2023/08/01 03:41:10;;;;;;;5.25;2.45;;;;;;;;;;5054314;28;20025;-75
2023/08/01 03:43:36;;;;;;;4.20;2.10;;;;;;;;;;5054377;28;20025;-74
2023/08/01 03:46:01;;;;;;;3.33;2.00;;;;;;;;;;5054246;28;20025;-75
2023/08/01 03:48:26;;;;;;;4.38;2.60;;;;;;;;;;5054462;28;20399;-75
2023/08/01 03:50:52;;;;;;;3.10;2.10;;;;;;;;;;5054541;28;20025;-75
2023/08/01 03:53:17;;;;;;;3.70;1.93;;;;;;;;;;5054560;28;20761;-75
2023/08/01 03:55:44;;;;;;;5.10;2.50;;;;;;;;;;5053157;28;20272;-75
2023/08/01 03:58:09;;;;;;;3.17;2.22;;;;;;;;;;5054444;28;20033;-75
2023/08/01 04:00:34;;;;;;;3.53;2.03;;;;;;;;;;5054041;28;20020;-75
2023/08/01 04:03:00;;;;;;;4.50;2.10;;;;;;;;;;5054279;28;20293;-76
2023/08/01 04:05:25;;;;;;;3.15;2.10;;;;;;;;;;5052638;28;20718;-75
2023/08/01 04:07:54;;;;;;;5.05;2.30;;;;;;;;;;5052670;28;20078;-75
2023/08/01 04:10:19;;;;;;;3.58;2.28;;;;;;;;;;5053745;28;20059;-75
2023/08/01 04:12:45;;;;;;;3.00;2.10;;;;;;;;;;5053849;28;20056;-74
2023/08/01 04:15:10;;;;;;;4.72;2.40;;;;;;;;;;5069274;28;20258;-75
2023/08/01 04:17:35;;;;;;;4.05;2.47;;;;;;;;;;5052459;28;20025;-74
2023/08/01 04:20:00;;;;;;;6.87;2.57;;;;;;;;;;5053430;28;20051;-75
2023/08/01 04:22:26;;;;;;;5.82;2.30;;;;;;;;;;5053689;28;20270;-75
2023/08/01 04:24:51;;;;;;;3.77;2.27;;;;;;;;;;5053614;28;20068;-75
2023/08/01 04:27:16;;;;;;;4.10;2.65;;;;;;;;;;5053674;28;20629;-75
2023/08/01 04:29:42;;;;;;;2.97;2.15;;;;;;;;;;5053751;28;20118;-75
2023/08/01 04:32:07;;;;;;;4.32;2.50;;;;;;;;;;5053478;28;20017;-75
2023/08/01 04:34:33;;;;;;;3.22;2.25;;;;;;;;;;5053602;28;20020;-75
2023/08/01 04:36:58;;;;;;;6.20;2.38;;;;;;;;;;5053399;28;20079;-74
2023/08/01 04:39:23;;;;;;;5.07;2.70;;;;;;;;;;5053342;28;20109;-75
2023/08/01 04:41:49;;;;;;;3.85;2.45;;;;;;;;;;5053532;28;20082;-75
2023/08/01 04:44:15;;;;;;;4.00;2.85;;;;;;;;;;5053222;28;20473;-75
2023/08/01 04:46:40;;;;;;;6.10;2.88;;;;;;;;;;5052983;28;20037;-75
2023/08/01 04:49:05;;;;;;;3.10;2.42;;;;;;;;;;5053133;28;20090;-75
2023/08/01 04:51:31;;;;;;;3.33;2.70;;;;;;;;;;5051886;28;20021;-75
2023/08/01 04:53:56;;;;;;;7.20;2.70;;;;;;;;;;5053499;28;20017;-74
2023/08/01 04:56:21;;;;;;;4.30;2.83;;;;;;;;;;5053183;28;20021;-74
2023/08/01 04:58:46;;;;;;;3.50;2.80;;;;;;;;;;5053648;28;20262;-75
2023/08/01 05:01:11;;;;;;;4.73;3.20;;;;;;;;;;5052994;28;20044;-76
2023/08/01 05:03:37;;;;;;;4.27;3.30;;;;;;;;;;5052919;28;20254;-76
2023/08/01 05:06:02;;;;;;;5.10;3.33;;;;;;;;;;5051595;28;20606;-75
2023/08/01 05:08:27;;;;;;;4.82;3.08;;;;;;;;;;5052960;28;20270;-75
2023/08/01 05:10:53;;;;;;;6.75;3.45;;;;;;;;;;5052899;28;20024;-74
2023/08/01 05:13:18;;;;;;;9.20;4.97;;;;;;;;;;5053261;28;20475;-74
2023/08/01 05:15:47;;;;;;;4.38;3.20;;;;;;;;;;5053157;28;20070;-73
2023/08/01 05:18:12;;;;;;;5.30;3.45;;;;;;;;;;5055936;28;20060;-78
2023/08/01 05:20:37;;;;;;;5.00;3.22;;;;;;;;;;5055669;28;20029;-78
2023/08/01 05:23:05;;;;;;;4.67;3.10;;;;;;;;;;5054809;28;20021;-75
2023/08/01 05:25:33;;;;;;;4.50;3.40;;;;;;;;;;5052131;28;20325;-73
2023/08/01 05:27:58;;;;;;;5.30;3.58;;;;;;;;;;5052637;28;20025;-75
2023/08/01 05:30:32;;;;;;;6.93;3.63;;;;;;;;;;5052049;28;20369;-78
2023/08/01 05:32:57;;;;;;;7.50;3.85;;;;;;;;;;5053080;28;20261;-74
2023/08/01 05:35:22;;;;;;;7.32;3.90;;;;;;;;;;5052856;28;20068;-75
2023/08/01 05:37:48;;;;;;;7.03;4.03;;;;;;;;;;5052592;28;20468;-73
2023/08/01 05:40:13;;;;;;;6.50;4.72;;;;;;;;;;5054151;28;20044;-75
2023/08/01 05:42:38;;;;;;;8.73;4.45;;;;;;;;;;5052746;28;20020;-77
2023/08/01 05:45:04;;;;;;;4.85;3.90;;;;;;;;;;5053758;28;20373;-78
2023/08/01 05:47:30;;;;;;;7.47;4.05;;;;;;;;;;5055515;28;20061;-78
2023/08/01 05:49:55;;;;;;;6.35;4.00;;;;;;;;;;5062132;28;20021;-78
2023/08/01 05:52:20;;;;;;;7.32;4.13;;;;;;;;;;5067223;28;20020;-78
2023/08/01 05:54:46;;;;;;;5.53;3.60;;;;;;;;;;5068383;28;20017;-78
2023/08/01 05:57:11;;;;;;;5.07;3.97;;;;;;;;;;5066921;28;20296;-79
2023/08/01 05:59:37;;;;;;;3.83;3.40;;;;;;;;;;5068360;28;20110;-77
2023/08/01 06:02:02;;;;;;;6.57;3.55;;;;;;;;;;5066393;28;20055;-79
2023/08/01 06:04:27;;;;;;;5.00;4.22;;;;;;;;;;5062445;28;20033;-78
2023/08/01 06:06:53;;;;;;;4.90;3.53;;;;;;;;;;5065566;28;20100;-78
2023/08/01 06:09:18;;;;;;;3.97;3.15;;;;;;;;;;5067279;28;20096;-78
2023/08/01 06:11:43;;;;;;;5.07;3.60;;;;;;;;;;5061408;28;20080;-78
2023/08/01 06:14:09;;;;;;;4.97;3.42;;;;;;;;;;5061951;28;20257;-77
2023/08/01 06:16:35;;;;;;;3.50;2.90;;;;;;;;;;5059930;28;20103;-77
2023/08/01 06:19:00;;;;;;;5.50;2.90;;;;;;;;;;5064248;28;20055;-76
2023/08/01 06:21:25;;;;;;;3.70;2.90;;;;;;;;;;5058240;28;20031;-78
2023/08/01 06:23:51;;;;;;;3.38;3.03;;;;;;;;;;5060111;28;20032;-80
2023/08/01 06:26:16;;;;;;;4.78;2.42;;;;;;;;;;5064475;28;20050;-78
2023/08/01 06:28:42;;;;;;;4.38;2.40;;;;;;;;;;5064182;28;20041;-82
2023/08/01 06:31:30;;;;;;;2.97;2.63;;;;;;;;;;5071354;22;20037;-80
2023/08/01 06:33:56;;;;;;;4.32;2.35;;;;;;;;;;5062643;28;20045;-78
2023/08/01 06:36:21;;;;;;;3.22;2.53;;;;;;;;;;5060777;28;20528;-78
2023/08/01 06:38:46;;;;;;;3.53;2.65;;;;;;;;;;5057447;28;20029;-77
2023/08/01 06:41:12;;;;;;;3.15;2.47;;;;;;;;;;5066986;28;20416;-77
2023/08/01 06:43:38;;;;;;;4.15;2.58;;;;;;;;;;5074451;28;20024;-78
2023/08/01 06:46:04;;;;;;;3.17;2.63;;;;;;;;;;5075961;28;20420;-78
2023/08/01 06:48:29;;;;;;;4.00;2.83;;;;;;;;;;5078401;28;20035;-77
2023/08/01 06:50:54;;;;;;;2.53;1.90;;;;;;;;;;5081610;28;20039;-78
2023/08/01 06:53:21;;;;;;;2.33;1.40;;;;;;;;;;5080824;28;20020;-78
2023/08/01 06:55:46;;;;;;;2.33;2.08;;;;;;;;;;5077995;28;20253;-78
2023/08/01 06:58:11;;;;;;;2.90;1.35;;;;;;;;;;5083187;28;20074;-78
2023/08/01 07:00:36;;;;;;;1.40;0.88;;;;;;;;;;5075555;28;20428;-77
2023/08/01 07:03:02;;;;;;;1.87;1.03;;;;;;;;;;5080507;28;20025;-77
2023/08/01 07:05:27;;;;;;;1.38;0.98;;;;;;;;;;5080364;28;20276;-78
2023/08/01 07:07:52;;;;;;;1.52;0.98;;;;;;;;;;5082073;28;20036;-77
2023/08/01 07:10:17;;;;;;;1.23;0.90;;;;;;;;;;5079352;28;20534;-78
2023/08/01 07:12:43;;;;;;;1.10;1.00;;;;;;;;;;5077535;28;20327;-78
2023/08/01 07:15:09;;;;;;;1.83;1.07;;;;;;;;;;5080360;28;20016;-78
2023/08/01 07:17:34;;;;;;;2.25;1.00;;;;;;;;;;5082605;28;20257;-78
2023/08/01 07:19:59;;;;;;;0.88;0.80;;;;;;;;;;5082637;28;20028;-78
2023/08/01 07:22:25;;;;;;;1.30;1.00;;;;;;;;;;5082438;28;20024;-78
2023/08/01 07:24:54;;;;;;;1.00;0.90;;;;;;;;;;5082004;28;20364;-78
2023/08/01 07:27:20;;;;;;;2.47;1.00;;;;;;;;;;5083217;28;20028;-77
2023/08/01 07:29:45;;;;;;;1.20;0.90;;;;;;;;;;5076740;28;20031;-77
2023/08/01 07:32:10;;;;;;;2.60;1.80;;;;;;;;;;5081210;28;20025;-78
2023/08/01 07:34:36;;;;;;;1.10;1.00;;;;;;;;;;5078203;28;20062;-78
2023/08/01 07:37:01;;;;;;;1.33;1.00;;;;;;;;;;5077770;28;20063;-77
2023/08/01 07:39:26;;;;;;;1.38;0.88;;;;;;;;;;5076845;28;20031;-78
2023/08/01 07:41:51;;;;;;;1.17;1.00;;;;;;;;;;5076381;28;20400;-77
2023/08/01 07:44:17;;;;;;;1.40;0.90;;;;;;;;;;5077658;28;20274;-78
2023/08/01 07:46:42;;;;;;;1.42;1.13;;;;;;;;;;5079593;28;20043;-78
2023/08/01 07:49:07;;;;;;;1.13;0.83;;;;;;;;;;5077748;28;20052;-78
2023/08/01 07:51:33;;;;;;;1.67;1.05;;;;;;;;;;5082244;28;20264;-77
2023/08/01 07:53:59;;;;;;;1.42;0.85;;;;;;;;;;5082206;28;20103;-78
2023/08/01 07:56:25;;;;;;;0.85;0.82;;;;;;;;;;5083767;28;20056;-78
2023/08/01 07:58:50;;;;;;;1.10;1.00;;;;;;;;;;5076009;28;20047;-78
2023/08/01 08:01:15;;;;;;;1.45;0.82;;;;;;;;;;5077164;28;20066;-77
2023/08/01 08:03:40;;;;;;;1.73;0.90;;;;;;;;;;5074800;28;20065;-78
2023/08/01 08:06:06;;;;;;;1.00;0.90;;;;;;;;;;5077963;28;20028;-78
2023/08/01 08:08:36;;;;;;;2.85;1.00;;;;;;;;;;5080421;28;20036;-78
2023/08/01 08:11:02;;;;;;;1.00;0.80;;;;;;;;;;5077876;28;20020;-77
2023/08/01 08:13:27;;;;;;;0.70;0.70;;;;;;;;;;5079553;28;20025;-78
2023/08/01 08:15:55;;;;;;;1.50;1.00;;;;;;;;;;5079495;28;20027;-78
2023/08/01 08:18:21;;;;;;;0.75;0.75;;;;;;;;;;5083080;28;20052;-78
2023/08/01 08:20:46;;;;;;;1.27;0.90;;;;;;;;;;5080792;28;20031;-79
2023/08/01 08:23:15;;;;;;;1.25;0.80;;;;;;;;;;5076143;28;20028;-77
2023/08/01 08:25:47;;;;;;;1.23;0.68;;;;;;;;;;5075130;28;20024;-77
2023/08/01 08:28:13;;;;;;;0.93;0.80;;;;;;;;;;5080337;28;20024;-78
2023/08/01 08:30:38;;;;;;;0.52;0.52;;;;;;;;;;5077189;28;20035;-77
2023/08/01 08:33:06;;;;;;;2.75;0.70;;;;;;;;;;5074642;28;20032;-77
2023/08/01 08:35:32;;;;;;;0.73;0.73;;;;;;;;;;5072952;28;20487;-77
2023/08/01 08:37:59;;;;;;;0.60;0.60;;;;;;;;;;5073498;28;20028;-77
2023/08/01 08:40:24;;;;;;;0.60;0.60;;;;;;;;;;5074435;28;20471;-77
2023/08/01 08:42:52;;;;;;;0.70;0.70;;;;;;;;;;5074706;28;20039;-77
2023/08/01 08:45:19;;;;;;;1.48;0.60;;;;;;;;;;5075199;28;20020;-77
2023/08/01 08:47:53;;;;;;;2.08;0.70;;;;;;;;;;5074151;28;20040;-77
2023/08/01 08:50:19;;;;;;;;;;;;;;;;;;5075282;28;20555;-77
2023/08/01 08:52:45;;;;;;;0.77;0.60;;;;;;;;;;5075827;28;19999;-77
2023/08/01 08:55:11;;;;;;;0.80;0.50;;;;;;;;;;5075878;28;20026;-78
2023/08/01 08:57:36;;;;;;;0.95;0.60;;;;;;;;;;5078268;28;20024;-78
2023/08/01 09:00:04;;;;;;;1.65;0.40;;;;;;;;;;5082029;28;20024;-78
2023/08/01 09:02:30;;;;;;;1.30;0.60;;;;;;;;;;5082465;28;20028;-78
2023/08/01 09:04:57;;;;;;;0.80;0.57;;;;;;;;;;5077387;28;20020;-78
2023/08/01 09:07:24;;;;;;;1.83;0.68;;;;;;;;;;5078344;28;20025;-77
2023/08/01 09:09:49;;;;;;;0.93;0.70;;;;;;;;;;5073512;28;20073;-77
2023/08/01 09:12:15;;;;;;;0.68;0.45;;;;;;;;;;5075767;28;20107;-77
2023/08/01 09:14:41;;;;;;;0.88;0.68;;;;;;;;;;5073766;28;20020;-77
2023/08/01 09:17:08;;;;;;;0.75;0.60;;;;;;;;;;5073574;28;20027;-77
2023/08/01 09:19:33;;;;;;;0.63;0.60;;;;;;;;;;5072403;28;20024;-78
2023/08/01 09:21:58;;;;;;;0.75;0.50;;;;;;;;;;5071899;28;20418;-77
2023/08/01 09:24:24;;;;;;;0.98;0.70;;;;;;;;;;5072971;28;20071;-77
2023/08/01 09:26:49;;;;;;;1.43;0.70;;;;;;;;;;5074069;28;20028;-77
2023/08/01 09:29:19;;;;;;;0.73;0.60;;;;;;;;;;5073357;28;20640;-77
2023/08/01 09:31:44;;;;;;;0.90;0.63;;;;;;;;;;5074064;28;20039;-77
2023/08/01 09:34:21;;;;;;;5.63;0.70;;;;;;;;;;5076244;28;20379;-77
2023/08/01 09:36:46;;;;;;;1.05;0.63;;;;;;;;;;5076324;28;20022;-76
2023/08/01 09:39:19;;;;;;;1.30;0.60;;;;;;;;;;5075299;28;20028;-77
2023/08/01 09:41:45;;;;;;;0.52;0.52;;;;;;;;;;5075676;28;20481;-77
2023/08/01 09:44:12;;;;;;;0.65;0.60;;;;;;;;;;5076769;28;20056;-77
2023/08/01 09:46:37;;;;;;;0.70;0.50;;;;;;;;;;5078269;28;20055;-78
2023/08/01 09:49:10;;;;;;;1.38;0.70;;;;;;;;;;5078024;28;20025;-77
2023/08/01 09:51:49;;;;;;;1.42;0.60;;;;;;;;;;5079882;28;20380;-78
2023/08/01 09:54:16;;;;;;;1.50;0.32;;;;;;;;;;5079301;28;20032;-78
2023/08/01 09:56:45;;;;;;;1.33;0.52;;;;;;;;;;5078274;28;20027;-78
2023/08/01 09:59:10;;;;;;;0.60;0.60;;;;;;;;;;5080188;28;20035;-78
2023/08/01 10:01:38;;;;;;;0.70;0.50;;;;;;;;;;5078486;28;20493;-78
2023/08/01 10:04:04;;;;;;;1.58;0.60;;;;;;;;;;5078829;28;20101;-77
2023/08/01 10:06:33;;;;;;;1.05;0.70;;;;;;;;;;5077503;28;20390;-78
2023/08/01 10:08:59;;;;;;;0.73;0.40;;;;;;;;;;5076154;28;20020;-76
2023/08/01 10:11:26;;;;;;;0.60;0.47;;;;;;;;;;5076957;28;20054;-76
2023/08/01 10:13:51;;;;;;;0.82;0.40;;;;;;;;;;5075305;28;20031;-77
2023/08/01 10:16:16;;;;;;;2.28;0.50;;;;;;;;;;5077416;28;20017;-77
2023/08/01 10:18:43;;;;;;;4.25;1.02;;;;;;;;;;5076805;28;20382;-78
2023/08/01 10:21:13;;;;;;;0.50;0.47;;;;;;;;;;5073011;28;20166;-77
2023/08/01 10:23:39;;;;;;;0.50;0.45;;;;;;;;;;5075680;28;20025;-77
2023/08/01 10:26:06;;;;;;;0.70;0.60;;;;;;;;;;5076098;28;20017;-77
2023/08/01 10:28:37;;;;;;;1.70;0.70;;;;;;;;;;5058569;28;20021;-77
2023/08/01 10:31:13;;;;;;;0.88;0.57;;;;;;;;;;5074708;28;20040;-77
2023/08/01 10:33:40;;;;;;;1.45;0.60;;;;;;;;;;5077506;28;20028;-77
2023/08/01 10:36:19;;;;;;;0.70;0.52;;;;;;;;;;5075194;28;20020;-76
2023/08/01 10:38:46;;;;;;;0.52;0.52;;;;;;;;;;5075353;28;20027;-76
2023/08/01 10:41:34;;;;;;;0.75;0.55;;;;;;;;;;5075619;28;20036;-76
2023/08/01 10:44:06;;;;;;;0.70;0.60;;;;;;;;;;5077745;28;20025;-78
2023/08/01 10:46:49;;;;;;;0.77;0.70;;;;;;;;;;5081845;28;20059;-79
2023/08/01 10:49:16;;;;;;;0.63;0.50;;;;;;;;;;5077430;28;20094;-80
2023/08/01 10:51:42;;;;;;;0.82;0.60;;;;;;;;;;5080056;28;20032;-79
2023/08/01 10:54:21;;;;;;;0.75;0.60;;;;;;;;;;5079122;28;20046;-73
2023/08/01 10:56:48;;;;;;;1.85;0.70;;;;;;;;;;5077293;28;20487;-72
2023/08/01 10:59:14;;;;;;;0.70;0.65;;;;;;;;;;5076806;28;20025;-75
2023/08/01 11:01:49;;;;;;;0.68;0.68;;;;;;;;;;5082976;28;20027;-79
2023/08/01 11:04:19;;;;;;;5.03;0.70;;;;;;;;;;5083232;28;20025;-81
2023/08/01 11:06:50;;;;;;;0.57;0.45;;;;;;;;;;5082841;28;20032;-78
2023/08/01 11:09:16;;;;;;;1.83;0.70;;;;;;;;;;5078484;28;20037;-76
2023/08/01 11:11:41;;;;;;;0.60;0.60;;;;;;;;;;5073176;28;20115;-72
2023/08/01 11:14:07;;;;;;;1.58;0.60;;;;;;;;;;5075047;28;20157;-74
2023/08/01 11:16:32;;;;;;;0.43;0.43;;;;;;;;;;5075052;28;20107;-75
2023/08/01 11:18:57;;;;;;;0.95;0.60;;;;;;;;;;5074395;28;20082;-75
2023/08/01 11:21:27;;;;;;;3.35;0.80;;;;;;;;;;5073517;28;20032;-74
2023/08/01 11:23:52;;;;;;;0.82;0.55;;;;;;;;;;5077720;28;20111;-75
2023/08/01 11:26:17;;;;;;;0.80;0.60;;;;;;;;;;5075545;28;20051;-74
2023/08/01 11:28:43;;;;;;;7.13;0.70;;;;;;;;;;5075684;28;20273;-74
2023/08/01 11:31:14;;;;;;;0.35;0.35;;;;;;;;;;5074344;28;20040;-72
2023/08/01 11:33:40;;;;;;;0.55;0.47;;;;;;;;;;5074922;28;20059;-73
2023/08/01 11:36:05;;;;;;;0.70;0.60;;;;;;;;;;5074503;28;20055;-73
2023/08/01 11:38:33;;;;;;;0.73;0.52;;;;;;;;;;5073575;28;20373;-73
2023/08/01 11:41:00;;;;;;;0.77;0.50;;;;;;;;;;5073406;28;20052;-74
2023/08/01 11:43:25;;;;;;;0.47;0.43;;;;;;;;;;5073182;28;20129;-73
2023/08/01 11:45:55;;;;;;;2.75;0.70;;;;;;;;;;5074242;28;20099;-73
2023/08/01 11:48:24;;;;;;;0.30;0.30;;;;;;;;;;5074171;28;20070;-74
2023/08/01 11:50:55;;;;;;;0.82;0.52;;;;;;;;;;5071007;28;20119;-75
2023/08/01 11:53:22;;;;;;;3.25;0.80;;;;;;;;;;5073471;28;20402;-72
2023/08/01 11:55:49;;;;;;;1.02;0.80;;;;;;;;;;5070627;28;20016;-77
2023/08/01 11:58:14;;;;;;;0.60;0.60;;;;;;;;;;5073123;28;20028;-74
2023/08/01 12:00:41;;;;;;;0.80;0.60;;;;;;;;;;5074167;28;20029;-73
2023/08/01 12:03:13;;;;;;;1.00;0.85;;;;;;;;;;5072676;28;20030;-73
2023/08/01 12:05:45;;;;;;;3.35;0.80;;;;;;;;;;5072596;28;20017;-74
2023/08/01 12:08:12;;;;;;;4.18;0.90;;;;;;;;;;5074237;28;20054;-73
2023/08/01 12:10:39;;;;;;;0.93;0.80;;;;;;;;;;5073570;28;20510;-73
2023/08/01 12:13:04;;;;;;;0.65;0.57;;;;;;;;;;5074601;28;20589;-72
2023/08/01 12:15:29;;;;;;;1.05;0.70;;;;;;;;;;5073936;28;20054;-73
2023/08/01 12:17:56;;;;;;;0.95;0.88;;;;;;;;;;5072282;28;20047;-73
2023/08/01 12:20:22;;;;;;;1.27;0.68;;;;;;;;;;5073624;28;20104;-74
2023/08/01 12:22:47;;;;;;;0.50;0.50;;;;;;;;;;5073574;28;20478;-73
2023/08/01 12:25:12;;;;;;;1.57;0.60;;;;;;;;;;5072315;28;20031;-73
2023/08/01 12:27:37;;;;;;;1.95;0.88;;;;;;;;;;5073654;28;20308;-73
2023/08/01 12:30:03;;;;;;;0.43;0.43;;;;;;;;;;5073170;28;20036;-74
2023/08/01 12:32:28;;;;;;;0.95;0.60;;;;;;;;;;5073519;28;20261;-73
2023/08/01 12:34:53;;;;;;;3.93;0.87;;;;;;;;;;5072065;28;20025;-74
2023/08/01 12:37:19;;;;;;;0.82;0.70;;;;;;;;;;5072005;28;20264;-74
2023/08/01 12:39:44;;;;;;;2.03;0.80;;;;;;;;;;5071899;28;20115;-73
2023/08/01 12:42:09;;;;;;;2.90;0.60;;;;;;;;;;5073226;28;20292;-74
2023/08/01 12:44:35;;;;;;;1.00;0.60;;;;;;;;;;5073100;28;20277;-73
2023/08/01 12:47:00;;;;;;;3.53;0.80;;;;;;;;;;5075685;28;20259;-77
2023/08/01 12:49:25;;;;;;;1.35;0.60;;;;;;;;;;5073636;28;20047;-73
2023/08/01 12:51:51;;;;;;;1.10;0.67;;;;;;;;;;5073342;28;20111;-73
2023/08/01 12:54:16;;;;;;;1.25;0.63;;;;;;;;;;5073125;28;20261;-72
2023/08/01 12:56:43;;;;;;;3.00;0.80;;;;;;;;;;5073147;28;20025;-73
2023/08/01 12:59:08;;;;;;;5.97;1.05;;;;;;;;;;5072916;28;20257;-73
2023/08/01 13:01:33;;;;;;;1.83;1.13;;;;;;;;;;5071737;28;20020;-73
2023/08/01 13:03:58;;;;;;;2.87;1.30;;;;;;;;;;5072892;28;20030;-72
2023/08/01 13:06:24;;;;;;;1.97;1.10;;;;;;;;;;5072611;28;20273;-73
2023/08/01 13:08:49;;;;;;;2.15;1.23;;;;;;;;;;5071968;28;20396;-74
2023/08/01 13:11:15;;;;;;;3.20;1.30;;;;;;;;;;5073226;28;20411;-73
2023/08/01 13:13:41;;;;;;;3.65;1.20;;;;;;;;;;5072981;28;20028;-73
2023/08/01 13:16:06;;;;;;;1.52;1.02;;;;;;;;;;5072895;28;20415;-73
2023/08/01 13:18:31;;;;;;;4.53;1.40;;;;;;;;;;5072919;28;20020;-73
2023/08/01 13:20:57;;;;;;;3.88;1.50;;;;;;;;;;5071409;28;20056;-73
2023/08/01 13:23:22;;;;;;;3.55;1.20;;;;;;;;;;5073250;28;20028;-73
2023/08/01 13:25:49;;;;;;;9.95;1.85;;;;;;;;;;5072605;28;20028;-74
2023/08/01 13:28:14;;;;;;;0.95;0.90;;;;;;;;;;5071387;28;20025;-73
2023/08/01 13:30:39;;;;;;;0.90;0.80;;;;;;;;;;5072618;28;20082;-73
2023/08/01 13:33:04;;;;;;;1.50;0.97;;;;;;;;;;5072691;28;20036;-73
2023/08/01 13:35:30;;;;;;;1.80;0.80;;;;;;;;;;5072737;28;20253;-73
2023/08/01 13:37:55;;;;;;;2.05;1.00;;;;;;;;;;5072622;28;20048;-73
2023/08/01 13:40:20;;;;;;;2.00;0.98;;;;;;;;;;5072548;28;20519;-74
2023/08/01 13:42:45;;;;;;;5.07;1.40;;;;;;;;;;5072534;28;20028;-73
2023/08/01 13:45:11;;;;;;;1.67;1.05;;;;;;;;;;5071233;28;20280;-74
2023/08/01 13:47:36;;;;;;;2.05;1.00;;;;;;;;;;5071349;28;20020;-73
2023/08/01 13:50:01;;;;;;;4.97;1.30;;;;;;;;;;5072535;28;20024;-73
2023/08/01 13:52:27;;;;;;;7.90;2.65;;;;;;;;;;5072836;28;20056;-73
2023/08/01 13:54:52;;;;;;;2.00;1.33;;;;;;;;;;5072436;28;20020;-73
2023/08/01 13:57:17;;;;;;;1.10;1.00;;;;;;;;;;5071212;28;20261;-72
2023/08/01 13:59:43;;;;;;;2.08;1.20;;;;;;;;;;5072843;28;20025;-73
2023/08/01 14:02:08;;;;;;;1.90;1.17;;;;;;;;;;5072501;28;20024;-73
2023/08/01 14:04:33;;;;;;;1.70;1.05;;;;;;;;;;5075778;28;20174;-80
2023/08/01 14:06:58;;;;;;;1.58;1.13;;;;;;;;;;5076337;28;20028;-75
2023/08/01 14:09:24;;;;;;;1.57;1.43;;;;;;;;;;5073821;28;20025;-78
2023/08/01 14:11:49;;;;;;;2.28;1.40;;;;;;;;;;5072424;28;20253;-75
2023/08/01 14:14:14;;;;;;;1.77;1.30;;;;;;;;;;5071970;28;20391;-76
2023/08/01 14:16:39;;;;;;;5.00;1.63;;;;;;;;;;5069928;28;20259;-76
2023/08/01 14:19:06;;;;;;;1.40;1.20;;;;;;;;;;5072472;28;20036;-77
2023/08/01 14:21:34;;;;;;;1.55;1.40;;;;;;;;;;5077470;28;20268;-77
2023/08/01 14:24:00;;;;;;;1.75;1.30;;;;;;;;;;5075044;28;20398;-76
2023/08/01 14:26:25;;;;;;;2.78;1.60;;;;;;;;;;5075170;28;20021;-76
2023/08/01 14:28:50;;;;;;;3.43;1.60;;;;;;;;;;5078216;28;20038;-80
2023/08/01 14:31:16;;;;;;;2.65;1.45;;;;;;;;;;5077976;28;20257;-77
2023/08/01 14:33:41;;;;;;;2.15;1.60;;;;;;;;;;5076756;28;20048;-77
2023/08/01 14:36:12;;;;;;;2.03;1.60;;;;;;;;;;5077289;28;20372;-76